Time;durP1;ratioP1;P1;durP2;ratioP2;P2;SDS_P1;SDS_P2;PMS_P1;PMS_P2;Temp;Humidity;BMP_temperature;BMP_pressure;BME280_temperature;BME280_humidity;BME280_pressure;Samples;Min_cycle;Max_cycle;Signal;HPM_P1;HPM_P2
2023/01/09 00:00:15;;;;;;;;;;;;;;;18.81;61.80;97664.34;2036303;28;19956;-49
2023/01/09 00:01:17;;;;;;;;;;;;;;;18.80;62.02;97665.38;2034589;28;20050;-52
2023/01/09 00:02:18;;;;;;;;;;;;;;;18.80;61.76;97657.31;2042717;28;20143;-46
2023/01/09 00:03:20;;;;;;;;;;;;;;;18.79;61.61;97655.69;2039880;28;19934;-50
2023/01/09 00:04:22;;;;;;;;;;;;;;;18.81;61.70;97653.59;2037162;28;19926;-46
2023/01/09 00:05:22;;;;;;;;;;;;;;;18.76;61.86;97648.09;2041832;28;20457;-49
2023/01/09 00:06:24;;;;;;;;;;;;;;;18.78;61.60;97658.59;2040736;28;19975;-49
2023/01/09 00:07:24;;;;;;;;;;;;;;;18.77;61.66;97651.59;2040234;28;19927;-55
2023/01/09 00:08:26;;;;;;;;;;;;;;;18.74;62.03;97647.47;2040889;28;19980;-52
2023/01/09 00:09:26;;;;;;;;;;;;;;;18.73;62.10;97641.25;2042552;28;20386;-53
2023/01/09 00:10:28;;;;;;;;;;;;;;;18.72;61.71;97649.53;2038431;28;19926;-49
2023/01/09 00:11:29;;;;;;;;;;;;;;;18.71;61.93;97643.34;2040577;28;20392;-53
2023/01/09 00:12:30;;;;;;;;;;;;;;;18.71;62.15;97651.41;2039553;28;19932;-53
2023/01/09 00:13:31;;;;;;;;;;;;;;;18.74;62.22;97652.84;2041806;28;20412;-52
2023/01/09 00:14:32;;;;;;;;;;;;;;;18.73;62.06;97648.50;2038998;28;20607;-52
2023/01/09 00:15:33;;;;;;;;;;;;;;;18.71;62.08;97647.91;2039472;28;19979;-55
2023/01/09 00:16:34;;;;;;;;;;;;;;;18.73;61.84;97640.44;2041059;28;19930;-48
2023/01/09 00:17:35;;;;;;;;;;;;;;;18.73;61.75;97633.22;2038759;28;19933;-56
2023/01/09 00:18:38;;;;;;;;;;;;;;;18.69;62.00;97650.00;2041212;28;20025;-54
2023/01/09 00:19:38;;;;;;;;;;;;;;;18.69;62.05;97642.78;2036678;28;19938;-52
2023/01/09 00:20:40;;;;;;;;;;;;;;;18.67;62.05;97619.88;2038855;28;19930;-51
2023/01/09 00:21:40;;;;;;;;;;;;;;;18.64;62.00;97634.59;2042228;28;19934;-51
2023/01/09 00:22:42;;;;;;;;;;;;;;;18.62;62.22;97638.53;2035634;28;20449;-50
2023/01/09 00:23:42;;;;;;;;;;;;;;;18.63;62.02;97632.94;2035817;28;19929;-55
2023/01/09 00:24:44;;;;;;;;;;;;;;;18.61;62.01;97629.66;2037479;28;19929;-51
2023/01/09 00:25:44;;;;;;;;;;;;;;;18.60;62.34;97625.31;2037458;28;20009;-53
2023/01/09 00:26:46;;;;;;;;;;;;;;;18.61;62.16;97631.50;2036868;28;19984;-52
2023/01/09 00:27:46;;;;;;;;;;;;;;;18.61;62.12;97631.50;2039192;28;22478;-48
2023/01/09 00:28:49;;;;;;;;;;;;;;;18.58;62.03;97630.09;2041846;28;19927;-50
2023/01/09 00:29:49;;;;;;;;;;;;;;;18.58;62.17;97631.97;2042696;28;19926;-53
2023/01/09 00:30:55;;;;;;;;;;;;;;;18.58;62.40;97621.22;2039735;28;19934;-52
2023/01/09 00:31:55;;;;;;;;;;;;;;;18.56;62.04;97617.97;2038766;28;20058;-52
2023/01/09 00:32:57;;;;;;;;;;;;;;;18.56;62.25;97617.97;2038026;28;19926;-51
2023/01/09 00:34:01;;;;;;;;;;;;;;;18.57;62.40;97624.97;2041164;28;19930;-51
2023/01/09 00:35:01;;;;;;;;;;;;;;;18.54;62.31;97612.81;2038042;28;20413;-48
2023/01/09 00:36:03;;;;;;;;;;;;;;;18.51;62.03;97611.41;2039133;28;19923;-47
2023/01/09 00:37:10;;;;;;;;;;;;;;;18.50;62.33;97604.41;2036929;28;19926;-50
2023/01/09 00:38:11;;;;;;;;;;;;;;;18.50;62.32;97615.16;2037308;28;19930;-50
2023/01/09 00:39:13;;;;;;;;;;;;;;;18.49;62.33;97618.84;2039948;28;20888;-51
2023/01/09 00:40:14;;;;;;;;;;;;;;;18.49;62.32;97618.84;2037129;28;19926;-50
2023/01/09 00:41:18;;;;;;;;;;;;;;;18.47;62.31;97610.25;2039541;28;19949;-48
2023/01/09 00:42:20;;;;;;;;;;;;;;;18.48;62.19;97605.69;2038337;28;19930;-50
2023/01/09 00:43:24;;;;;;;;;;;;;;;18.48;62.25;97611.06;2037257;28;21279;-51
2023/01/09 00:44:27;;;;;;;;;;;;;;;18.46;62.28;97603.22;2038955;28;19926;-49
2023/01/09 00:45:29;;;;;;;;;;;;;;;18.45;62.53;97606.94;2035429;28;20353;-49
2023/01/09 00:46:32;;;;;;;;;;;;;;;18.46;62.37;97605.09;2037901;28;20394;-50
2023/01/09 00:47:37;;;;;;;;;;;;;;;18.46;62.37;97605.09;2039349;28;19936;-50
2023/01/09 00:48:39;;;;;;;;;;;;;;;18.45;62.28;97606.94;2036225;28;19934;-50
2023/01/09 00:49:43;;;;;;;;;;;;;;;18.42;62.51;97604.72;2041243;28;20424;-51
2023/01/09 00:50:43;;;;;;;;;;;;;;;18.43;62.30;97602.84;2039439;28;19926;-52
2023/01/09 00:51:45;;;;;;;;;;;;;;;18.41;62.54;97600.38;2042728;28;19922;-48
2023/01/09 00:52:47;;;;;;;;;;;;;;;18.42;62.56;97599.34;2039789;28;19926;-48
2023/01/09 00:53:49;;;;;;;;;;;;;;;18.42;62.62;97603.91;2040464;28;19976;-48
2023/01/09 00:54:50;;;;;;;;;;;;;;;18.41;62.39;97610.31;2038859;28;19989;-51
2023/01/09 00:55:51;;;;;;;;;;;;;;;18.40;62.30;97612.19;2042198;28;19930;-52
2023/01/09 00:56:52;;;;;;;;;;;;;;;18.40;62.34;97620.22;2036309;28;20401;-48
2023/01/09 00:57:54;;;;;;;;;;;;;;;18.40;62.51;97606.00;2040051;28;19933;-52
2023/01/09 00:58:56;;;;;;;;;;;;;;;18.39;62.51;97632.03;2039241;28;19985;-53
2023/01/09 00:59:57;;;;;;;;;;;;;;;18.39;62.48;97625.84;2040357;28;19930;-49
2023/01/09 01:00:58;;;;;;;;;;;;;;;18.37;62.30;97631.44;2040526;28;19930;-51
2023/01/09 01:01:59;;;;;;;;;;;;;;;18.39;62.26;97640.09;2045026;28;20776;-54
2023/01/09 01:03:00;;;;;;;;;;;;;;;18.39;62.52;97648.13;2037034;28;19992;-53
2023/01/09 01:07:37;;;;;;;;;;;;;;;18.39;62.63;97637.41;2044110;28;19945;-48
2023/01/09 01:08:02;;;;;;;;;;;;;;;18.36;62.40;97640.53;2043791;28;19929;-52
2023/01/09 01:09:03;;;;;;;;;;;;;;;18.35;62.56;97665.72;2039566;28;19937;-51
2023/01/09 01:10:06;;;;;;;;;;;;;;;18.34;62.61;97663.28;2039319;28;20006;-52
2023/01/09 01:11:08;;;;;;;;;;;;;;;18.34;62.59;97665.97;2040824;28;20524;-50
2023/01/09 01:12:09;;;;;;;;;;;;;;;18.33;62.62;97673.19;2039634;28;20037;-49
2023/01/09 01:13:11;;;;;;;;;;;;;;;18.32;62.45;97671.53;2037128;28;20882;-49
2023/01/09 01:14:11;;;;;;;;;;;;;;;18.33;62.37;97672.34;2041142;28;19969;-48
2023/01/09 01:15:13;;;;;;;;;;;;;;;18.33;62.39;97661.63;2035470;28;19930;-49
2023/01/09 01:16:14;;;;;;;;;;;;;;;18.32;62.61;97660.81;2041811;28;19971;-50
2023/01/09 01:17:15;;;;;;;;;;;;;;;18.32;62.57;97660.81;2039090;28;20410;-53
2023/01/09 01:18:15;;;;;;;;;;;;;;;18.31;62.37;97667.22;2038096;28;21000;-51
2023/01/09 01:19:17;;;;;;;;;;;;;;;18.30;62.63;97669.09;2035986;28;19934;-50
2023/01/09 01:20:18;;;;;;;;;;;;;;;18.31;62.41;97680.66;2041627;28;19929;-50
2023/01/09 01:21:20;;;;;;;;;;;;;;;18.30;62.31;97684.38;2037316;28;19930;-48
2023/01/09 01:22:21;;;;;;;;;;;;;;;18.29;62.54;97680.06;2041202;28;19931;-49
2023/01/09 01:23:22;;;;;;;;;;;;;;;18.28;62.64;97675.75;2038932;28;19995;-48
2023/01/09 01:24:23;;;;;;;;;;;;;;;18.27;62.54;97674.91;2036539;28;20008;-48
2023/01/09 01:25:24;;;;;;;;;;;;;;;18.28;62.48;97673.06;2043054;28;23681;-48
2023/01/09 01:26:25;;;;;;;;;;;;;;;18.27;62.59;97663.34;2036571;28;19926;-48
2023/01/09 01:27:27;;;;;;;;;;;;;;;18.26;62.73;97669.75;2036264;28;20370;-50
2023/01/09 01:28:28;;;;;;;;;;;;;;;18.25;62.69;97666.28;2036883;28;19933;-52
2023/01/09 01:29:29;;;;;;;;;;;;;;;18.25;62.65;97665.44;2035509;28;20291;-48
2023/01/09 01:30:31;;;;;;;;;;;;;;;18.24;62.67;97659.25;2037810;28;20994;-51
2023/01/09 01:31:31;;;;;;;;;;;;;;;18.23;62.40;97654.94;2037028;28;20823;-47
2023/01/09 01:32:33;;;;;;;;;;;;;;;18.24;62.66;97653.06;2039134;28;19938;-50
2023/01/09 01:33:33;;;;;;;;;;;;;;;18.25;62.62;97654.72;2037131;28;19927;-52
2023/01/09 01:34:35;;;;;;;;;;;;;;;18.23;62.54;97659.47;2040151;28;19930;-49
2023/01/09 01:35:37;;;;;;;;;;;;;;;18.23;62.69;97662.16;2039620;28;19926;-51
2023/01/09 01:36:39;;;;;;;;;;;;;;;18.22;62.58;97657.81;2038997;28;20025;-49
2023/01/09 01:37:40;;;;;;;;;;;;;;;18.22;62.55;97655.13;2035458;28;20512;-50
2023/01/09 01:38:41;;;;;;;;;;;;;;;18.21;62.38;97653.50;2042498;28;19930;-49
2023/01/09 01:39:43;;;;;;;;;;;;;;;18.21;62.61;97658.88;2040769;28;19936;-52
2023/01/09 01:40:43;;;;;;;;;;;;;;;18.20;62.72;97652.69;2032226;28;21288;-50
2023/01/09 01:41:44;;;;;;;;;;;;;;;18.19;62.69;97653.75;2041647;28;19932;-52
2023/01/09 01:42:46;;;;;;;;;;;;;;;18.18;62.61;97662.81;2037623;28;19923;-50
2023/01/09 01:43:51;;;;;;;;;;;;;;;18.19;62.39;97663.63;2039963;28;21041;-47
2023/01/09 01:45:09;;;;;;;;;;;;;;;18.18;62.63;97656.66;2041847;28;19933;-51
2023/01/09 01:46:10;;;;;;;;;;;;;;;18.18;62.90;97662.81;2035703;28;19930;-51
2023/01/09 01:47:11;;;;;;;;;;;;;;;18.16;62.68;97656.84;2036492;28;19926;-51
2023/01/09 01:48:15;;;;;;;;;;;;;;;18.16;62.72;97651.50;2043778;28;19964;-51
2023/01/09 01:49:19;;;;;;;;;;;;;;;18.17;62.89;97649.66;2035049;28;19927;-51
2023/01/09 01:50:28;;;;;;;;;;;;;;;18.14;62.52;97650.91;2041780;28;19941;-48
2023/01/09 01:51:31;;;;;;;;;;;;;;;18.17;62.52;97652.34;2034855;28;20461;-51
2023/01/09 01:52:36;;;;;;;;;;;;;;;18.14;62.47;97644.72;2037960;28;20406;-47
2023/01/09 01:53:39;;;;;;;;;;;;;;;18.14;62.64;97647.41;2038602;28;21276;-51
2023/01/09 01:54:40;;;;;;;;;;;;;;;18.13;62.88;97653.81;2036625;28;19922;-52
2023/01/09 01:55:45;;;;;;;;;;;;;;;18.13;62.52;97651.13;2041328;28;19979;-50
2023/01/09 01:56:47;;;;;;;;;;;;;;;18.11;62.73;97650.53;2041082;28;21131;-48
2023/01/09 01:57:50;;;;;;;;;;;;;;;18.12;62.77;97654.88;2034118;28;20460;-52
2023/01/09 01:58:54;;;;;;;;;;;;;;;18.10;62.82;97657.75;2038358;28;19925;-50
2023/01/09 01:59:56;;;;;;;;;;;;;;;18.10;62.68;97647.03;2038526;28;19926;-51
2023/01/09 02:00:58;;;;;;;;;;;;;;;18.08;62.61;97649.13;2036263;28;19926;-48
2023/01/09 02:02:00;;;;;;;;;;;;;;;18.08;62.85;97649.13;2039848;28;19926;-50
2023/01/09 02:03:02;;;;;;;;;;;;;;;18.08;62.78;97639.22;2029812;28;20818;-50
2023/01/09 02:04:03;;;;;;;;;;;;;;;18.10;62.74;97641.66;2034816;28;19953;-51
2023/01/09 02:05:04;;;;;;;;;;;;;;;18.10;62.60;97641.66;2038112;28;19922;-50
2023/01/09 02:06:06;;;;;;;;;;;;;;;18.07;62.80;97637.56;2036574;28;20558;-49
2023/01/09 02:07:09;;;;;;;;;;;;;;;18.06;62.84;97635.94;2035926;28;19930;-50
2023/01/09 02:08:11;;;;;;;;;;;;;;;18.05;62.85;97628.09;2038161;28;20048;-51
2023/01/09 02:09:14;;;;;;;;;;;;;;;18.04;62.88;97631.81;2036393;28;19936;-50
2023/01/09 02:10:14;;;;;;;;;;;;;;;18.05;62.63;97645.03;2036281;28;19930;-48
2023/01/09 02:11:17;;;;;;;;;;;;;;;18.05;62.87;97649.56;2037724;28;19937;-47
2023/01/09 02:12:19;;;;;;;;;;;;;;;18.04;62.74;97642.56;2038456;28;20113;-48
2023/01/09 02:13:20;;;;;;;;;;;;;;;18.05;62.79;97638.81;2038353;28;20677;-49
2023/01/09 02:14:23;;;;;;;;;;;;;;;18.03;62.64;97647.13;2039051;28;19926;-48
2023/01/09 02:15:25;;;;;;;;;;;;;;;18.03;62.82;97636.38;2039876;28;19988;-52
2023/01/09 02:16:33;;;;;;;;;;;;;;;18.02;62.67;97639.28;2039932;28;19925;-48
2023/01/09 02:17:48;;;;;;;;;;;;;;;18.02;62.63;97645.44;2030341;28;20028;-48
2023/01/09 02:18:51;;;;;;;;;;;;;;;18.02;62.77;97640.09;2035528;28;19930;-48
2023/01/09 02:20:10;;;;;;;;;;;;;;;18.00;62.61;97634.16;2037797;28;19945;-48
2023/01/09 02:21:16;;;;;;;;;;;;;;;17.99;62.88;97645.91;2038593;28;20481;-48
2023/01/09 02:22:21;;;;;;;;;;;;;;;18.01;62.89;97648.38;2039157;28;19931;-48
2023/01/09 02:23:43;;;;;;;;;;;;;;;18.02;62.64;97650.00;2034258;28;20432;-52
2023/01/09 02:25:08;;;;;;;;;;;;;;;18.01;62.88;97637.66;2037768;28;19981;-52
2023/01/09 02:26:26;;;;;;;;;;;;;;;17.98;62.77;97630.84;2036642;28;19933;-51
2023/01/09 02:27:42;;;;;;;;;;;;;;;17.98;62.78;97630.84;2019829;28;20029;-51
2023/01/09 02:28:57;;;;;;;;;;;;;;;17.96;62.90;97619.53;2062439;28;19924;-48
2023/01/09 02:30:13;;;;;;;;;;;;;;;17.96;62.71;97629.44;2069028;28;19925;-49
2023/01/09 02:31:19;;;;;;;;;;;;;;;17.96;62.96;97624.88;2064426;28;19982;-52
2023/01/09 02:32:33;;;;;;;;;;;;;;;17.94;62.79;97636.88;2038974;28;19930;-50
2023/01/09 02:33:46;;;;;;;;;;;;;;;17.94;62.75;97626.16;2035291;28;19927;-50
2023/01/09 02:34:53;;;;;;;;;;;;;;;17.94;62.70;97627.00;2037767;28;19938;-48
2023/01/09 02:36:02;;;;;;;;;;;;;;;17.93;62.76;97625.34;2041785;28;20522;-50
2023/01/09 02:37:08;;;;;;;;;;;;;;;17.93;62.74;97619.16;2068295;28;19955;-50
2023/01/09 02:38:13;;;;;;;;;;;;;;;17.93;62.74;97622.66;2035660;28;19930;-51
2023/01/09 02:39:17;;;;;;;;;;;;;;;17.91;63.15;97622.06;2035127;28;19937;-49
2023/01/09 02:40:21;;;;;;;;;;;;;;;17.93;62.71;97619.97;2039629;28;19976;-48
2023/01/09 02:41:27;;;;;;;;;;;;;;;17.92;63.01;97618.34;2037951;28;19926;-48
2023/01/09 02:42:28;;;;;;;;;;;;;;;17.90;62.79;97628.47;2038014;28;19926;-49
2023/01/09 02:43:31;;;;;;;;;;;;;;;17.92;62.75;97623.72;2037115;28;20290;-52
2023/01/09 02:44:33;;;;;;;;;;;;;;;17.91;63.01;97619.38;2037414;28;20384;-48
2023/01/09 02:45:34;;;;;;;;;;;;;;;17.90;62.95;97625.78;2035877;28;19926;-51
2023/01/09 02:46:36;;;;;;;;;;;;;;;17.90;62.95;97624.97;2040046;28;20266;-48
2023/01/09 02:47:42;;;;;;;;;;;;;;;17.89;62.75;97629.53;2034664;28;19981;-48
2023/01/09 02:48:45;;;;;;;;;;;;;;;17.90;62.89;97636.53;2035389;28;19930;-48
2023/01/09 02:49:47;;;;;;;;;;;;;;;17.90;62.97;97633.03;2036079;28;19974;-50
2023/01/09 02:50:55;;;;;;;;;;;;;;;17.87;63.04;97623.56;2038137;28;20023;-50
2023/01/09 02:51:58;;;;;;;;;;;;;;;17.86;62.97;97630.78;2036921;28;19937;-48
2023/01/09 02:53:13;;;;;;;;;;;;;;;17.87;62.83;97623.56;2065985;28;19925;-49
2023/01/09 02:54:20;;;;;;;;;;;;;;;17.86;63.08;97614.69;2039798;28;19933;-48
2023/01/09 02:55:30;;;;;;;;;;;;;;;17.86;63.06;97608.53;2039025;28;19922;-50
2023/01/09 02:56:39;;;;;;;;;;;;;;;17.85;62.75;97612.22;2039743;28;19933;-49
2023/01/09 02:57:48;;;;;;;;;;;;;;;17.85;62.92;97612.22;2037527;28;21057;-52
2023/01/09 02:58:57;;;;;;;;;;;;;;;17.83;62.78;97608.97;2039097;28;20420;-52
2023/01/09 03:00:08;;;;;;;;;;;;;;;17.83;62.89;97603.59;2034575;28;19933;-49
2023/01/09 03:01:19;;;;;;;;;;;;;;;17.82;63.22;97608.13;2039777;28;20453;-48
2023/01/09 03:02:33;;;;;;;;;;;;;;;17.82;62.99;97602.75;2037523;28;20305;-47
2023/01/09 03:03:38;;;;;;;;;;;;;;;17.82;63.08;97604.63;2040555;28;19930;-48
2023/01/09 03:04:42;;;;;;;;;;;;;;;17.82;62.89;97615.34;2039223;28;19930;-49
2023/01/09 03:05:47;;;;;;;;;;;;;;;17.82;62.90;97612.66;2036581;28;19968;-47
2023/01/09 03:06:51;;;;;;;;;;;;;;;17.81;63.04;97611.03;2037025;28;20004;-47
2023/01/09 03:07:56;;;;;;;;;;;;;;;17.81;63.05;97611.84;2032429;28;19961;-48
2023/01/09 03:09:00;;;;;;;;;;;;;;;17.81;62.91;97605.69;2040213;28;19930;-48
2023/01/09 03:10:06;;;;;;;;;;;;;;;17.80;62.92;97612.06;2027557;28;19929;-46
2023/01/09 03:11:08;;;;;;;;;;;;;;;17.78;63.18;97617.66;2038644;28;19930;-48
2023/01/09 03:12:13;;;;;;;;;;;;;;;17.79;63.00;97618.47;2040433;28;19933;-49
2023/01/09 03:13:18;;;;;;;;;;;;;;;17.78;63.04;97620.34;2041767;28;19926;-49
2023/01/09 03:14:20;;;;;;;;;;;;;;;17.80;63.17;97625.47;2037312;28;19930;-49
2023/01/09 03:15:23;;;;;;;;;;;;;;;17.78;62.96;97611.47;2037856;28;20005;-48
2023/01/09 03:16:28;;;;;;;;;;;;;;;17.79;62.99;97618.47;2037589;28;20534;-51
2023/01/09 03:17:34;;;;;;;;;;;;;;;17.78;62.84;97624.88;2043512;28;19933;-47
2023/01/09 03:18:36;;;;;;;;;;;;;;;17.77;63.14;97625.91;2038100;28;19930;-49
2023/01/09 03:19:37;;;;;;;;;;;;;;;17.77;63.01;97617.84;2037653;28;20859;-48
2023/01/09 03:20:38;;;;;;;;;;;;;;;17.76;62.98;97619.72;2040379;28;19986;-48
2023/01/09 03:21:40;;;;;;;;;;;;;;;17.74;63.20;97620.97;2040281;28;20432;-47
2023/01/09 03:22:45;;;;;;;;;;;;;;;17.74;62.92;97620.97;2038393;28;19930;-48
2023/01/09 03:23:47;;;;;;;;;;;;;;;17.74;63.02;97620.97;2040845;28;19922;-49
2023/01/09 03:24:48;;;;;;;;;;;;;;;17.73;63.13;97628.22;2038205;28;19926;-47
2023/01/09 03:25:49;;;;;;;;;;;;;;;17.74;62.97;97623.66;2038493;28;20520;-48
2023/01/09 03:26:50;;;;;;;;;;;;;;;17.73;62.89;97624.72;2038462;28;20458;-47
2023/01/09 03:27:54;;;;;;;;;;;;;;;17.73;62.97;97616.66;2041525;28;19926;-48
2023/01/09 03:28:55;;;;;;;;;;;;;;;17.72;62.90;97623.06;2037982;28;20733;-47
2023/01/09 03:29:56;;;;;;;;;;;;;;;17.71;63.08;97622.25;2045325;28;19937;-48
2023/01/09 03:30:57;;;;;;;;;;;;;;;17.71;63.08;97610.69;2043375;28;20394;-49
2023/01/09 03:31:58;;;;;;;;;;;;;;;17.70;63.21;97609.88;2043565;28;19927;-49
2023/01/09 03:33:01;;;;;;;;;;;;;;;17.72;63.08;97617.69;2076144;28;19929;-55
2023/01/09 03:34:02;;;;;;;;;;;;;;;17.71;63.21;97611.50;2039456;28;19930;-46
2023/01/09 03:35:03;;;;;;;;;;;;;;;17.70;63.05;97614.44;2040879;28;19937;-47
2023/01/09 03:36:05;;;;;;;;;;;;;;;17.68;62.98;97611.97;2036369;28;19964;-47
2023/01/09 03:37:05;;;;;;;;;;;;;;;17.70;63.01;97619.81;2038761;28;19999;-49
2023/01/09 03:38:07;;;;;;;;;;;;;;;17.69;63.05;97616.31;2041735;28;19987;-51
2023/01/09 03:39:07;;;;;;;;;;;;;;;17.69;63.15;97612.78;2044962;28;19937;-50
2023/01/09 03:40:09;;;;;;;;;;;;;;;17.69;63.18;97612.78;2039988;28;19930;-46
2023/01/09 03:41:10;;;;;;;;;;;;;;;17.68;63.14;97622.69;2037922;28;20378;-46
2023/01/09 03:42:12;;;;;;;;;;;;;;;17.69;62.97;97626.19;2038984;28;19926;-47
2023/01/09 03:43:12;;;;;;;;;;;;;;;17.68;63.17;97621.88;2040103;28;20040;-50
2023/01/09 03:44:14;;;;;;;;;;;;;;;17.69;63.00;97626.19;2039753;28;19930;-48
2023/01/09 03:45:14;;;;;;;;;;;;;;;17.68;62.95;97624.56;2038918;28;21011;-48
2023/01/09 03:46:16;;;;;;;;;;;;;;;17.68;63.13;97629.91;2041991;28;19930;-47
2023/01/09 03:47:16;;;;;;;;;;;;;;;17.67;62.96;97629.09;2042972;28;20031;-47
2023/01/09 03:48:19;;;;;;;;;;;;;;;17.67;63.08;97615.69;2039161;28;20518;-50
2023/01/09 03:49:20;;;;;;;;;;;;;;;17.65;63.21;97615.91;2044120;28;20332;-48
2023/01/09 03:50:21;;;;;;;;;;;;;;;17.64;63.07;97616.97;2044337;28;19930;-47
2023/01/09 03:51:22;;;;;;;;;;;;;;;17.65;63.01;97615.91;2040816;28;19976;-48
2023/01/09 03:52:23;;;;;;;;;;;;;;;17.66;62.98;97619.41;2040734;28;19922;-50
2023/01/09 03:53:25;;;;;;;;;;;;;;;17.66;62.97;97619.41;2046079;28;19926;-48
2023/01/09 03:54:26;;;;;;;;;;;;;;;17.64;63.30;97614.28;2038454;28;20412;-48
2023/01/09 03:55:27;;;;;;;;;;;;;;;17.64;63.02;97610.78;2040136;28;20807;-48
2023/01/09 03:56:28;;;;;;;;;;;;;;;17.63;63.13;97612.66;2041109;28;19926;-49
2023/01/09 03:57:28;;;;;;;;;;;;;;;17.62;63.04;97602.94;2041021;28;19923;-46
2023/01/09 03:58:30;;;;;;;;;;;;;;;17.61;63.14;97601.31;2042016;28;19922;-47
2023/01/09 03:59:30;;;;;;;;;;;;;;;17.61;63.05;97603.19;2042448;28;19926;-48
2023/01/09 04:00:32;;;;;;;;;;;;;;;17.61;63.09;97601.31;2040787;28;19980;-47
2023/01/09 04:01:32;;;;;;;;;;;;;;;17.61;63.18;97605.88;2039887;28;27484;-50
2023/01/09 04:02:34;;;;;;;;;;;;;;;17.60;63.08;97607.69;2039887;28;19926;-48
2023/01/09 04:03:36;;;;;;;;;;;;;;;17.60;63.09;97614.94;2037735;28;19983;-51
2023/01/09 04:04:37;;;;;;;;;;;;;;;17.60;63.13;97614.94;2041057;28;19929;-49
2023/01/09 04:05:38;;;;;;;;;;;;;;;17.60;63.08;97621.09;2040194;28;19923;-47
2023/01/09 04:06:39;;;;;;;;;;;;;;;17.63;63.18;97625.22;2036180;28;19926;-50
2023/01/09 04:07:40;;;;;;;;;;;;;;;17.62;63.08;97634.31;2043104;28;19934;-47
2023/01/09 04:08:41;;;;;;;;;;;;;;;17.63;62.98;97638.63;2038772;28;20998;-50
2023/01/09 04:09:42;;;;;;;;;;;;;;;17.61;63.11;97638.03;2043296;28;20690;-48
2023/01/09 04:10:44;;;;;;;;;;;;;;;17.60;62.99;97631.84;2042212;28;19926;-49
2023/01/09 04:11:44;;;;;;;;;;;;;;;17.61;63.25;97638.03;2038545;28;19926;-49
2023/01/09 04:12:46;;;;;;;;;;;;;;;17.59;63.28;97638.25;2039182;28;19957;-50
2023/01/09 04:13:46;;;;;;;;;;;;;;;17.60;63.21;97637.19;2043440;28;19948;-49
2023/01/09 04:14:48;;;;;;;;;;;;;;;17.60;63.03;97641.75;2041133;28;19930;-49
2023/01/09 04:15:51;;;;;;;;;;;;;;;17.59;62.99;97638.25;2040281;28;19926;-49
2023/01/09 04:16:53;;;;;;;;;;;;;;;17.58;63.10;97627.75;2040256;28;19937;-50
2023/01/09 04:17:53;;;;;;;;;;;;;;;17.58;63.08;97638.50;2070890;28;19929;-50
2023/01/09 04:18:56;;;;;;;;;;;;;;;17.58;63.13;97641.16;2045555;28;19991;-49
2023/01/09 04:19:58;;;;;;;;;;;;;;;17.57;63.16;97626.91;2040415;28;20313;-52
2023/01/09 04:20:59;;;;;;;;;;;;;;;17.56;63.24;97633.34;2040645;28;20386;-52
2023/01/09 04:22:00;;;;;;;;;;;;;;;17.56;63.14;97636.00;2068484;28;20291;-55
2023/01/09 04:23:01;;;;;;;;;;;;;;;17.56;63.38;97629.84;2043621;28;19933;-53
2023/01/09 04:24:02;;;;;;;;;;;;;;;17.56;63.14;97625.28;2039969;28;20389;-53
2023/01/09 04:25:04;;;;;;;;;;;;;;;17.56;63.22;97621.78;2038339;28;19926;-52
2023/01/09 04:26:05;;;;;;;;;;;;;;;17.55;63.01;97620.97;2041077;28;20321;-50
2023/01/09 04:27:06;;;;;;;;;;;;;;;17.56;63.27;97630.66;2041179;28;19926;-50
2023/01/09 04:28:07;;;;;;;;;;;;;;;17.54;63.12;97622.00;2041738;28;19930;-49
2023/01/09 04:29:08;;;;;;;;;;;;;;;17.54;63.20;97619.31;2039999;28;19933;-49
2023/01/09 04:30:09;;;;;;;;;;;;;;;17.54;63.29;97613.94;2041792;28;20304;-46
2023/01/09 04:31:11;;;;;;;;;;;;;;;17.51;63.39;97617.09;2038612;28;19949;-50
2023/01/09 04:32:11;;;;;;;;;;;;;;;17.52;63.12;97609.84;2047367;28;19926;-48
2023/01/09 04:33:13;;;;;;;;;;;;;;;17.53;63.18;97612.31;2066184;28;21712;-47
2023/01/09 04:34:15;;;;;;;;;;;;;;;17.53;63.11;97604.28;2042677;28;19930;-49
2023/01/09 04:35:16;;;;;;;;;;;;;;;17.51;63.34;97606.34;2041652;28;20508;-47
2023/01/09 04:36:18;;;;;;;;;;;;;;;17.50;63.15;97607.41;2037511;28;20011;-50
2023/01/09 04:37:18;;;;;;;;;;;;;;;17.52;63.21;97608.00;2042196;28;19937;-51
2023/01/09 04:38:20;;;;;;;;;;;;;;;17.55;63.13;97606.72;2044404;28;19930;-48
2023/01/09 04:39:20;;;;;;;;;;;;;;;17.61;62.86;97601.31;2042123;28;19937;-49
2023/01/09 04:40:22;;;;;;;;;;;;;;;17.65;62.88;97597.13;2053170;28;20607;-48
2023/01/09 04:42:42;;;;;;;;;;;;;;;17.79;62.58;97594.34;2038120;28;19927;-51
2023/01/09 04:43:43;;;;;;;;;;;;;;;17.84;62.52;97603.38;2038844;28;19926;-49
2023/01/09 04:44:44;;;;;;;;;;;;;;;17.91;62.59;97599.78;2038826;28;19930;-48
2023/01/09 04:45:45;;;;;;;;;;;;;;;17.94;62.51;97608.22;2039404;28;19922;-50
2023/01/09 04:46:46;;;;;;;;;;;;;;;18.00;62.42;97609.19;2039692;28;19995;-52
2023/01/09 04:47:48;;;;;;;;;;;;;;;18.03;62.40;97608.72;2038520;28;19934;-51
2023/01/09 04:48:48;;;;;;;;;;;;;;;18.05;62.34;97607.47;2039162;28;20869;-48
2023/01/09 04:49:51;;;;;;;;;;;;;;;18.09;62.23;97605.16;2038403;28;19926;-49
2023/01/09 04:50:52;;;;;;;;;;;;;;;18.13;62.17;97608.19;2039698;28;19930;-49
2023/01/09 04:51:54;;;;;;;;;;;;;;;18.15;62.10;97617.66;2038685;28;19970;-49
2023/01/09 04:52:55;;;;;;;;;;;;;;;18.19;62.29;97604.59;2038467;28;20602;-48
2023/01/09 04:53:57;;;;;;;;;;;;;;;18.24;62.03;97602.06;2036839;28;19929;-51
2023/01/09 04:54:57;;;;;;;;;;;;;;;18.27;62.23;97606.97;2041910;28;21285;-48
2023/01/09 04:55:59;;;;;;;;;;;;;;;18.30;61.96;97615.41;2041662;28;19930;-51
2023/01/09 04:56:59;;;;;;;;;;;;;;;18.35;61.86;97612.03;2041835;28;19945;-51
2023/01/09 04:58:01;;;;;;;;;;;;;;;18.36;61.88;97602.94;2040502;28;20350;-49
2023/01/09 04:59:01;;;;;;;;;;;;;;;18.38;62.01;97611.56;2033429;28;21412;-50
2023/01/09 05:00:03;;;;;;;;;;;;;;;18.40;61.84;97608.69;2039084;28;20398;-52
2023/01/09 05:01:04;;;;;;;;;;;;;;;18.40;62.15;97606.81;2038097;28;19942;-53
2023/01/09 05:02:05;;;;;;;;;;;;;;;18.43;61.82;97603.66;2038256;28;22345;-49
2023/01/09 05:03:06;;;;;;;;;;;;;;;18.45;62.03;97609.63;2037653;28;19975;-50
2023/01/09 05:04:07;;;;;;;;;;;;;;;18.46;62.09;97608.56;2043634;28;20463;-49
2023/01/09 05:05:10;;;;;;;;;;;;;;;18.47;61.77;97604.88;2038975;28;20488;-48
2023/01/09 05:06:11;;;;;;;;;;;;;;;18.50;61.79;97593.66;2041521;28;19922;-48
2023/01/09 05:07:13;;;;;;;;;;;;;;;18.50;61.89;97604.41;2038443;28;19965;-53
2023/01/09 05:08:13;;;;;;;;;;;;;;;18.53;62.02;97603.94;2042737;28;19934;-51
2023/01/09 05:09:15;;;;;;;;;;;;;;;18.56;61.90;97599.19;2037027;28;20907;-48
2023/01/09 05:10:15;;;;;;;;;;;;;;;18.58;61.90;97605.13;2043285;28;20538;-51
2023/01/09 05:11:17;;;;;;;;;;;;;;;18.58;61.56;97600.56;2040106;28;19929;-48
2023/01/09 05:12:17;;;;;;;;;;;;;;;18.58;61.90;97595.19;2042549;28;19934;-52
2023/01/09 05:13:19;;;;;;;;;;;;;;;18.63;61.65;97600.69;2036227;28;19939;-49
2023/01/09 05:14:19;;;;;;;;;;;;;;;18.63;61.76;97599.88;2038326;28;19960;-52
2023/01/09 05:15:21;;;;;;;;;;;;;;;18.63;61.69;97595.31;2038180;28;19958;-49
2023/01/09 05:16:21;;;;;;;;;;;;;;;18.66;61.49;97596.75;2036161;28;20014;-50
2023/01/09 05:17:23;;;;;;;;;;;;;;;18.70;61.52;97597.94;2039009;28;19927;-52
2023/01/09 05:18:23;;;;;;;;;;;;;;;18.70;61.74;97598.75;2038360;28;19934;-50
2023/01/09 05:19:25;;;;;;;;;;;;;;;18.74;61.78;97605.31;2039426;28;19930;-51
2023/01/09 05:20:27;;;;;;;;;;;;;;;18.75;61.59;97603.47;2037215;28;19953;-49
2023/01/09 05:21:28;;;;;;;;;;;;;;;18.80;61.49;97594.72;2034062;28;24145;-51
2023/01/09 05:22:29;;;;;;;;;;;;;;;18.82;61.43;97601.50;2037758;28;19926;-51
2023/01/09 05:23:30;;;;;;;;;;;;;;;18.85;61.36;97605.59;2038476;28;19927;-49
2023/01/09 05:24:31;;;;;;;;;;;;;;;18.86;61.25;97605.38;2038548;28;19934;-51
2023/01/09 05:25:32;;;;;;;;;;;;;;;18.90;61.26;97611.09;2035422;28;19938;-50
2023/01/09 05:26:33;;;;;;;;;;;;;;;18.89;61.74;97610.28;2037453;28;20271;-48
2023/01/09 05:27:34;;;;;;;;;;;;;;;18.90;61.44;97606.53;2036050;28;19971;-49
2023/01/09 05:28:35;;;;;;;;;;;;;;;18.90;61.36;97606.53;2037546;28;20803;-49
2023/01/09 05:29:36;;;;;;;;;;;;;;;18.94;61.35;97615.78;2037873;28;19922;-50
2023/01/09 05:30:37;;;;;;;;;;;;;;;18.94;61.37;97617.63;2037718;28;19930;-50